Time;durP1;ratioP1;P1;durP2;ratioP2;P2;SDS_P1;SDS_P2;PMS_P1;PMS_P2;Temp;Humidity;BMP_temperature;BMP_pressure;BME280_temperature;BME280_humidity;BME280_pressure;Samples;Min_cycle;Max_cycle;Signal;HPM_P1;HPM_P2
2022/06/24 00:00:05;;;;;;;15.90;7.78;;;25.60;99.90;;;;;;5994859;23;20061;-92
2022/06/24 00:02:36;;;;;;;14.10;7.32;;;25.50;99.90;;;;;;6126666;23;20464;-93
2022/06/24 00:05:09;;;;;;;12.20;7.90;;;25.50;99.90;;;;;;6129318;23;20097;-91
2022/06/24 00:07:51;;;;;;;17.23;7.25;;;25.50;99.90;;;;;;6195875;23;20000;-92
2022/06/24 00:10:21;;;;;;;11.52;7.38;;;25.50;99.90;;;;;;6224948;23;20044;-93
2022/06/24 00:12:50;;;;;;;11.65;7.93;;;25.50;99.90;;;;;;6222454;23;20058;-92
2022/06/24 00:15:25;;;;;;;9.45;7.85;;;25.50;99.90;;;;;;6222545;23;20039;-92
2022/06/24 00:17:55;;;;;;;12.25;7.97;;;25.50;99.90;;;;;;6221677;23;20004;-93
2022/06/24 00:20:23;;;;;;;12.23;8.43;;;25.50;99.90;;;;;;6221914;23;20020;-93
2022/06/24 00:22:52;;;;;;;14.07;7.85;;;25.50;99.90;;;;;;6221481;23;20454;-92
2022/06/24 00:25:25;;;;;;;12.70;8.77;;;25.50;99.90;;;;;;6222022;23;20016;-92
2022/06/24 00:28:04;;;;;;;11.73;8.27;;;25.50;99.90;;;;;;6222799;23;20465;-91
2022/06/24 00:31:04;;;;;;;15.05;9.52;;;25.50;99.90;;;;;;6241597;23;20053;-91
2022/06/24 00:33:36;;;;;;;15.38;9.45;;;25.40;99.90;;;;;;6098741;23;20405;-92
2022/06/24 00:36:06;;;;;;;16.13;9.55;;;25.40;99.90;;;;;;6077767;23;20009;-92
2022/06/24 00:38:36;;;;;;;15.10;9.02;;;25.50;99.90;;;;;;6078126;23;20009;-92
2022/06/24 00:41:10;;;;;;;13.30;9.05;;;25.40;99.90;;;;;;6078118;23;20014;-92
2022/06/24 00:43:53;;;;;;;15.93;8.95;;;25.40;99.90;;;;;;6078752;23;20010;-92
2022/06/24 00:46:27;;;;;;;13.85;7.97;;;25.40;99.90;;;;;;6078280;23;20014;-92
2022/06/24 00:48:57;;;;;;;12.15;8.43;;;25.40;99.90;;;;;;6088223;23;20017;-93
2022/06/24 00:51:33;;;;;;;13.52;7.60;;;25.40;99.90;;;;;;6084614;23;20141;-92
2022/06/24 00:54:09;;;;;;;13.25;8.32;;;25.40;99.90;;;;;;6077740;23;20014;-93
2022/06/24 00:56:36;;;;;;;12.73;7.85;;;25.40;99.90;;;;;;6078190;23;20010;-92
2022/06/24 00:59:07;;;;;;;12.10;7.15;;;25.50;99.90;;;;;;6077954;23;20029;-93
2022/06/24 01:01:42;;;;;;;13.20;7.38;;;25.40;99.90;;;;;;6078270;23;20360;-93
2022/06/24 01:04:11;;;;;;;8.18;6.15;;;25.50;99.90;;;;;;6077680;23;20014;-93
2022/06/24 01:06:43;;;;;;;8.85;6.60;;;25.60;99.90;;;;;;6077809;23;20040;-92
2022/06/24 01:09:11;;;;;;;10.63;6.63;;;25.60;99.90;;;;;;6155144;23;20004;-93
2022/06/24 01:11:42;;;;;;;6.50;5.60;;;25.70;99.90;;;;;;6221490;23;20008;-92
2022/06/24 01:14:10;;;;;;;7.82;5.70;;;25.80;99.90;;;;;;6221189;23;20008;-92
2022/06/24 01:16:38;;;;;;;9.63;5.97;;;25.80;99.90;;;;;;6222120;23;20082;-92
2022/06/24 01:19:08;;;;;;;9.80;6.00;;;25.90;99.90;;;;;;6221321;23;20012;-92
2022/06/24 01:21:49;;;;;;;10.07;6.82;;;25.90;99.90;;;;;;6221143;23;20046;-91
2022/06/24 01:24:19;;;;;;;8.57;6.25;;;25.90;99.90;;;;;;6220971;23;20027;-93
2022/06/24 01:26:55;;;;;;;9.23;5.80;;;25.90;99.90;;;;;;6221146;23;20035;-92
2022/06/24 01:29:23;;;;;;;7.22;5.50;;;25.90;99.90;;;;;;6221883;23;20004;-92
2022/06/24 01:31:53;;;;;;;8.00;5.35;;;25.80;99.90;;;;;;6221776;23;20008;-93
2022/06/24 01:34:22;;;;;;;10.32;5.68;;;25.90;99.90;;;;;;6221047;23;20015;-93
2022/06/24 01:36:50;;;;;;;10.48;4.88;;;25.90;99.90;;;;;;6233849;23;20068;-92
2022/06/24 01:39:18;;;;;;;11.15;5.15;;;25.90;99.90;;;;;;6230607;23;20438;-93
2022/06/24 01:41:45;;;;;;;10.38;5.60;;;25.90;99.90;;;;;;6222549;23;20361;-93
2022/06/24 01:44:12;;;;;;;10.20;5.35;;;26.00;99.90;;;;;;6221439;23;20453;-93
2022/06/24 01:46:38;;;;;;;7.22;5.20;;;26.10;99.90;;;;;;6220994;23;20082;-93
2022/06/24 01:49:05;;;;;;;10.50;5.80;;;26.10;99.90;;;;;;6220950;23;20012;-93
2022/06/24 01:51:33;;;;;;;11.80;5.10;;;26.00;99.90;;;;;;6221381;23;20408;-94
2022/06/24 01:54:00;;;;;;;10.95;5.05;;;25.90;99.90;;;;;;6221193;23;20028;-93
2022/06/24 01:56:27;;;;;;;7.00;5.35;;;25.90;99.90;;;;;;6221756;23;20012;-93
2022/06/24 01:58:53;;;;;;;9.77;5.43;;;25.90;99.90;;;;;;6221336;23;20426;-93
2022/06/24 02:01:38;;;;;;;12.75;5.18;;;25.80;99.90;;;;;;6220948;23;20008;-93
2022/06/24 02:04:05;;;;;;;7.50;5.13;;;25.70;99.90;;;;;;6220896;23;20031;-94
2022/06/24 02:06:31;;;;;;;7.85;4.88;;;25.60;99.90;;;;;;6221291;23;20004;-93
2022/06/24 02:08:58;;;;;;;10.32;6.25;;;25.70;99.90;;;;;;6221786;23;20058;-93
2022/06/24 02:14:14;;;;;;;10.80;5.75;;;25.70;99.90;;;;;;6250610;23;20000;-92
2022/06/24 02:16:42;;;;;;;17.77;7.07;;;25.70;99.90;;;;;;6235601;23;20008;-92
2022/06/24 02:19:08;;;;;;;10.52;7.30;;;25.60;99.90;;;;;;6236188;23;20011;-93
2022/06/24 02:21:36;;;;;;;11.38;7.50;;;25.50;99.90;;;;;;6226380;23;20012;-93
2022/06/24 02:24:04;;;;;;;11.95;7.05;;;25.50;99.90;;;;;;6220805;23;20119;-93
2022/06/24 02:26:31;;;;;;;13.50;7.70;;;25.50;99.90;;;;;;6220921;23;20097;-93
2022/06/24 02:28:58;;;;;;;15.98;8.48;;;25.40;99.90;;;;;;6220811;23;20008;-93
2022/06/24 02:31:24;;;;;;;19.45;8.70;;;25.40;99.90;;;;;;6220799;23;20008;-93
2022/06/24 02:33:51;;;;;;;14.73;8.25;;;25.40;99.90;;;;;;6220768;23;20004;-93
2022/06/24 02:36:18;;;;;;;12.77;7.68;;;25.40;99.90;;;;;;6220972;23;20008;-93
2022/06/24 02:38:46;;;;;;;15.45;8.38;;;25.30;99.90;;;;;;6221198;23;20058;-92
2022/06/24 02:41:13;;;;;;;14.93;9.60;;;25.30;99.90;;;;;;6220430;23;20434;-92
2022/06/24 02:43:40;;;;;;;14.70;9.43;;;25.30;99.90;;;;;;6220360;23;20004;-92
2022/06/24 02:46:22;;;;;;;16.83;9.38;;;25.20;99.90;;;;;;6220493;23;20012;-93
2022/06/24 02:48:49;;;;;;;14.95;9.43;;;25.20;99.90;;;;;;6220808;23;20031;-92
2022/06/24 02:51:16;;;;;;;10.98;8.50;;;25.10;99.90;;;;;;6220709;23;20491;-93
2022/06/24 02:53:46;;;;;;;15.65;8.70;;;25.10;99.90;;;;;;6221314;23;20087;-93
2022/06/24 02:56:16;;;;;;;15.82;8.80;;;25.00;99.90;;;;;;6221120;23;20012;-93
2022/06/24 02:58:44;;;;;;;13.65;9.20;;;25.00;99.90;;;;;;6230598;23;20015;-93
2022/06/24 03:01:16;;;;;;;18.58;9.23;;;24.90;99.90;;;;;;6243619;23;20008;-93
2022/06/24 03:03:44;;;;;;;13.23;9.05;;;24.90;99.90;;;;;;6247081;22;20027;-92
2022/06/24 03:06:11;;;;;;;14.18;10.50;;;24.90;99.90;;;;;;6249700;22;20019;-91
2022/06/24 03:08:39;;;;;;;15.88;9.68;;;24.90;99.90;;;;;;6237515;23;20004;-93
2022/06/24 03:11:09;;;;;;;16.45;9.10;;;25.00;99.90;;;;;;6228669;23;20015;-93
2022/06/24 03:13:35;;;;;;;18.83;10.05;;;25.10;99.90;;;;;;6222738;23;20012;-93
2022/06/24 03:16:02;;;;;;;18.23;10.70;;;25.10;99.90;;;;;;6223228;23;20000;-93
2022/06/24 03:18:29;;;;;;;13.63;9.75;;;25.10;99.90;;;;;;6223027;23;20055;-92
2022/06/24 03:20:55;;;;;;;14.80;10.77;;;25.10;99.90;;;;;;6222930;23;20004;-93
2022/06/24 03:23:22;;;;;;;18.20;12.30;;;25.20;99.90;;;;;;6222827;23;20024;-93
2022/06/24 03:25:49;;;;;;;19.25;11.90;;;25.20;99.90;;;;;;6225594;23;20027;-93
2022/06/24 03:28:16;;;;;;;19.00;12.35;;;25.20;99.90;;;;;;6225679;23;20064;-93
2022/06/24 03:30:42;;;;;;;16.30;10.05;;;25.20;99.90;;;;;;6243847;23;20015;-93
2022/06/24 03:33:10;;;;;;;18.67;11.02;;;25.20;99.90;;;;;;6221018;23;20004;-93
2022/06/24 03:35:36;;;;;;;15.45;10.50;;;25.30;99.90;;;;;;6199810;23;20434;-93
2022/06/24 03:38:03;;;;;;;17.27;9.15;;;25.30;99.90;;;;;;6224633;23;20008;-93
2022/06/24 03:40:30;;;;;;;18.95;11.00;;;25.30;99.90;;;;;;6224140;23;20026;-94
2022/06/24 03:42:57;;;;;;;15.35;9.70;;;25.30;99.90;;;;;;6224347;23;20016;-93
2022/06/24 03:45:24;;;;;;;14.73;9.55;;;25.30;99.90;;;;;;6233304;23;20012;-93
2022/06/24 03:47:51;;;;;;;17.60;10.25;;;25.30;99.90;;;;;;6236836;23;20450;-93
2022/06/24 03:50:21;;;;;;;19.90;10.65;;;25.30;99.90;;;;;;6224405;23;20418;-92
2022/06/24 03:52:48;;;;;;;15.90;10.50;;;25.30;99.90;;;;;;6223278;23;20012;-93
2022/06/24 03:55:15;;;;;;;15.85;10.02;;;25.40;99.90;;;;;;6225240;23;20015;-93
2022/06/24 03:57:42;;;;;;;18.08;10.18;;;25.40;99.90;;;;;;6225816;23;20008;-93
2022/06/24 04:00:10;;;;;;;18.95;9.82;;;25.50;99.90;;;;;;6225817;23;20004;-93
2022/06/24 04:02:40;;;;;;;18.77;10.07;;;25.50;99.90;;;;;;6225234;23;20001;-93
2022/06/24 04:05:09;;;;;;;16.05;10.10;;;25.50;99.90;;;;;;6222761;23;20102;-93
2022/06/24 04:07:37;;;;;;;17.70;11.27;;;25.60;99.90;;;;;;6249063;23;20095;-93
2022/06/24 04:10:05;;;;;;;23.05;10.98;;;25.60;99.90;;;;;;6223076;23;20354;-92
2022/06/24 04:12:32;;;;;;;15.57;10.60;;;25.60;99.90;;;;;;6223585;23;20004;-93
2022/06/24 04:15:14;;;;;;;16.58;10.43;;;25.80;99.90;;;;;;6228186;23;20008;-93
2022/06/24 04:17:43;;;;;;;18.42;10.88;;;26.00;99.90;;;;;;6223821;23;20008;-93
2022/06/24 04:20:10;;;;;;;16.67;10.80;;;26.00;99.90;;;;;;6222350;23;20034;-93
2022/06/24 04:22:37;;;;;;;20.50;10.90;;;26.10;99.90;;;;;;6222930;23;20337;-93
2022/06/24 04:25:05;;;;;;;14.73;10.52;;;26.20;99.90;;;;;;6223382;23;20016;-93
2022/06/24 04:27:31;;;;;;;16.67;10.65;;;26.40;99.90;;;;;;6224427;23;20083;-93
2022/06/24 04:30:12;;;;;;;14.52;9.35;;;26.70;99.90;;;;;;6223265;23;20011;-93
2022/06/24 04:32:39;;;;;;;15.35;9.88;;;26.90;99.90;;;;;;6233788;23;20028;-93
2022/06/24 04:35:07;;;;;;;18.35;10.32;;;27.20;99.90;;;;;;6255149;23;20001;-92
2022/06/24 04:37:40;;;;;;;18.35;9.35;;;27.60;99.90;;;;;;6222884;23;20500;-93
2022/06/24 04:40:08;;;;;;;;;;;28.00;99.90;;;;;;6223867;23;20430;-93
2022/06/24 04:42:41;;;;;;;19.08;9.13;;;28.40;99.90;;;;;;6223875;23;19982;-93
2022/06/24 04:45:08;;;;;;;18.02;9.93;;;28.90;99.90;;;;;;6224737;23;20027;-93
2022/06/24 04:47:36;;;;;;;20.08;9.18;;;29.20;99.90;;;;;;6222774;23;20041;-93
2022/06/24 04:50:04;;;;;;;15.32;8.98;;;29.80;99.90;;;;;;6222866;23;20040;-94
2022/06/24 04:52:32;;;;;;;14.57;8.43;;;30.40;99.90;;;;;;6223175;23;20138;-93
2022/06/24 04:55:00;;;;;;;10.35;7.72;;;31.10;99.90;;;;;;6224674;23;20334;-93
2022/06/24 04:57:30;;;;;;;14.70;7.80;;;32.20;99.90;;;;;;6223079;23;20008;-94
2022/06/24 04:59:56;;;;;;;16.25;7.43;;;32.30;99.90;;;;;;6223199;23;20036;-93
2022/06/24 05:02:23;;;;;;;13.10;7.13;;;32.80;99.90;;;;;;6224225;23;20004;-93
2022/06/24 05:04:50;;;;;;;12.48;6.90;;;33.00;99.90;;;;;;6224082;23;20024;-93
2022/06/24 05:07:17;;;;;;;13.63;7.40;;;33.10;99.90;;;;;;6224474;23;20046;-94
2022/06/24 05:09:45;;;;;;;17.40;6.65;;;32.40;99.90;;;;;;6223936;23;20131;-92
2022/06/24 05:12:12;;;;;;;23.17;8.40;;;31.40;99.90;;;;;;6234040;23;20000;-91
2022/06/24 05:14:44;;;;;;;14.25;7.03;;;30.90;99.90;;;;;;6234742;23;20067;-92
2022/06/24 05:17:12;;;;;;;18.85;6.30;;;30.80;99.90;;;;;;6222572;23;20436;-92
2022/06/24 05:19:42;;;;;;;11.80;6.13;;;31.70;99.90;;;;;;6222058;23;20083;-92
2022/06/24 05:22:08;;;;;;;16.35;6.70;;;31.50;99.90;;;;;;6221673;23;20005;-92
2022/06/24 05:24:38;;;;;;;20.50;6.97;;;31.20;99.90;;;;;;6221794;23;20020;-92
2022/06/24 05:27:05;;;;;;;14.40;6.40;;;31.10;99.90;;;;;;6222125;23;20555;-92
2022/06/24 05:29:32;;;;;;;18.48;6.75;;;31.10;99.90;;;;;;6246958;22;20012;-92
2022/06/24 05:32:00;;;;;;;19.58;7.10;;;31.50;99.90;;;;;;6246475;23;19999;-91
2022/06/24 05:34:27;;;;;;;23.02;8.05;;;31.60;99.90;;;;;;6222348;23;20113;-91
2022/06/24 05:36:54;;;;;;;82.78;10.70;;;31.90;99.90;;;;;;6222053;23;20004;-91
2022/06/24 05:39:21;;;;;;;16.67;6.47;;;32.00;99.90;;;;;;6221530;23;20008;-91
2022/06/24 05:41:48;;;;;;;17.40;6.65;;;31.90;99.90;;;;;;6222005;23;20009;-92
2022/06/24 05:44:15;;;;;;;18.13;7.03;;;32.40;99.90;;;;;;6223479;23;20051;-92
2022/06/24 05:46:42;;;;;;;21.33;7.15;;;32.20;99.90;;;;;;6233363;23;20449;-90
2022/06/24 05:49:09;;;;;;;23.35;7.07;;;32.40;99.90;;;;;;6235752;23;20074;-91
2022/06/24 05:51:48;;;;;;;20.00;7.40;;;32.20;99.90;;;;;;6225999;23;20011;-91
2022/06/24 05:57:03;;;;;;;20.85;7.55;;;31.50;99.90;;;;;;6255221;22;20011;-90
2022/06/24 05:59:30;;;;;;;18.65;6.93;;;31.80;99.90;;;;;;6244742;23;20012;-91
2022/06/24 06:02:00;;;;;;;17.35;7.43;;;32.40;99.90;;;;;;6223882;23;20008;-92
2022/06/24 06:04:30;;;;;;;19.48;8.07;;;33.10;99.90;;;;;;6220951;23;20107;-91
2022/06/24 06:06:56;;;;;;;15.65;7.55;;;33.60;99.90;;;;;;6221016;23;20004;-91
2022/06/24 06:09:23;;;;;;;19.30;7.38;;;34.10;99.90;;;;;;6226577;23;20008;-91
2022/06/24 06:11:50;;;;;;;13.15;7.20;;;34.10;99.90;;;;;;6222417;23;20023;-90
2022/06/24 06:14:18;;;;;;;24.30;8.40;;;34.00;99.90;;;;;;6221534;23;20430;-92
2022/06/24 06:16:47;;;;;;;24.52;8.90;;;34.70;99.90;;;;;;6220774;23;20358;-92
2022/06/24 06:19:17;;;;;;;19.77;8.55;;;35.50;99.90;;;;;;6220393;23;20056;-91
2022/06/24 06:21:46;;;;;;;17.73;9.25;;;35.50;99.90;;;;;;6221164;23;20430;-94
2022/06/24 06:24:38;;;;;;;17.85;9.43;;;35.90;99.90;;;;;;6220437;23;20066;-92
2022/06/24 06:27:05;;;;;;;16.70;9.13;;;35.80;99.90;;;;;;6221210;23;20433;-91
2022/06/24 06:29:32;;;;;;;29.02;9.40;;;35.80;99.90;;;;;;6220955;23;20008;-91
2022/06/24 06:32:36;;;;;;;20.92;9.48;;;35.80;99.90;;;;;;6221065;23;20026;-92
2022/06/24 06:35:04;;;;;;;17.50;9.80;;;36.50;99.90;;;;;;6219930;23;20147;-92
2022/06/24 06:37:43;;;;;;;17.83;9.70;;;36.00;99.90;;;;;;6196086;23;20020;-91
2022/06/24 06:40:10;;;;;;;18.40;9.50;;;35.80;99.90;;;;;;6195764;23;20004;-90
2022/06/24 06:42:37;;;;;;;19.88;10.40;;;35.90;99.90;;;;;;6220575;23;20009;-92
2022/06/24 06:45:05;;;;;;;22.15;10.43;;;35.90;99.90;;;;;;6194938;23;20019;-92
2022/06/24 06:47:32;;;;;;;18.73;10.80;;;36.30;99.90;;;;;;6195411;23;20000;-93
2022/06/24 06:49:59;;;;;;;24.90;10.88;;;36.90;99.90;;;;;;6195844;23;20012;-92
2022/06/24 06:52:25;;;;;;;20.33;11.88;;;37.20;99.90;;;;;;6195526;23;20008;-93
2022/06/24 06:54:52;;;;;;;21.05;11.77;;;36.70;99.90;;;;;;6196717;23;20000;-91
2022/06/24 06:57:19;;;;;;;26.35;11.40;;;36.80;99.90;;;;;;6200240;23;20004;-91
2022/06/24 06:59:48;;;;;;;26.45;11.02;;;36.50;99.90;;;;;;6197284;23;20087;-92
2022/06/24 07:02:30;;;;;;;17.52;10.70;;;36.10;99.90;;;;;;6196322;23;20004;-92
2022/06/24 07:04:57;;;;;;;19.20;10.68;;;36.30;99.90;;;;;;6195135;23;20012;-93
2022/06/24 07:07:23;;;;;;;20.73;11.25;;;35.90;99.90;;;;;;6195816;23;20361;-93
2022/06/24 07:09:51;;;;;;;20.20;11.43;;;35.60;99.90;;;;;;6200997;23;20062;-93
2022/06/24 07:12:21;;;;;;;18.83;11.60;;;35.80;99.90;;;;;;6211064;23;20040;-92
2022/06/24 07:14:48;;;;;;;24.00;11.35;;;36.30;99.90;;;;;;6214393;23;20011;-93
2022/06/24 07:17:16;;;;;;;18.58;11.55;;;36.50;99.90;;;;;;6220981;23;20008;-93
2022/06/24 07:19:44;;;;;;;16.08;11.05;;;36.60;99.90;;;;;;6220887;23;20087;-93
2022/06/24 07:22:11;;;;;;;24.25;12.52;;;36.50;99.90;;;;;;6221011;23;20080;-93
2022/06/24 07:24:44;;;;;;;20.65;11.55;;;36.40;99.90;;;;;;6221524;23;20020;-95
2022/06/24 07:27:11;;;;;;;20.63;11.85;;;36.60;99.90;;;;;;6221433;23;20009;-93
2022/06/24 07:29:56;;;;;;;13.90;11.40;;;36.70;99.90;;;;;;6160794;23;20008;-92
2022/06/24 07:32:23;;;;;;;15.05;12.13;;;36.70;99.90;;;;;;6159860;23;20009;-93
2022/06/24 07:34:50;;;;;;;18.13;12.90;;;37.40;99.90;;;;;;6161236;23;20083;-93
2022/06/24 07:37:22;;;;;;;21.08;12.02;;;37.00;99.90;;;;;;6161544;23;20013;-93
2022/06/24 07:39:49;;;;;;;21.50;12.32;;;36.80;99.90;;;;;;6161177;23;20103;-92
2022/06/24 07:42:15;;;;;;;31.08;13.02;;;36.60;99.90;;;;;;6181473;23;20061;-85
2022/06/24 07:44:43;;;;;;;19.85;11.90;;;36.80;99.90;;;;;;6158092;23;20092;-82
2022/06/24 07:47:12;;;;;;;21.25;12.35;;;36.80;99.90;;;;;;6159669;23;20009;-83
2022/06/24 07:49:38;;;;;;;25.70;13.60;;;36.90;99.90;;;;;;6185030;23;20009;-83
2022/06/24 07:52:08;;;;;;;16.88;12.10;;;36.60;99.90;;;;;;6184857;23;20017;-83
2022/06/24 07:54:34;;;;;;;20.15;12.80;;;37.00;99.90;;;;;;6184772;23;20327;-83
2022/06/24 07:57:01;;;;;;;17.38;12.43;;;37.20;99.90;;;;;;6184773;23;20013;-83
2022/06/24 07:59:31;;;;;;;18.27;11.93;;;36.80;99.90;;;;;;6186681;23;20009;-83
2022/06/24 08:01:59;;;;;;;15.88;12.65;;;36.40;99.90;;;;;;6247736;22;20004;-82
2022/06/24 08:04:28;;;;;;;23.48;12.52;;;36.40;99.90;;;;;;6247701;22;20434;-83
2022/06/24 08:06:55;;;;;;;13.15;11.45;;;36.30;99.90;;;;;;6247664;22;20077;-83
2022/06/24 08:09:25;;;;;;;16.08;12.80;;;36.00;99.90;;;;;;6247597;22;20058;-83
2022/06/24 08:11:53;;;;;;;21.55;13.20;;;36.40;99.90;;;;;;6247786;23;20008;-82
2022/06/24 08:14:20;;;;;;;20.60;13.20;;;36.80;99.90;;;;;;6247696;22;20034;-83
2022/06/24 08:16:47;;;;;;;22.40;12.52;;;37.70;99.40;;;;;;6247392;22;20389;-83
2022/06/24 08:19:14;;;;;;;16.13;12.50;;;37.90;98.40;;;;;;6248064;22;20008;-86
2022/06/24 08:21:42;;;;;;;18.48;12.98;;;37.60;98.20;;;;;;6220590;23;20031;-83
2022/06/24 08:24:09;;;;;;;19.38;13.07;;;37.10;98.30;;;;;;6245507;23;20016;-83
2022/06/24 08:26:36;;;;;;;25.67;13.55;;;36.40;98.40;;;;;;6247952;22;20012;-90
2022/06/24 08:29:03;;;;;;;20.17;12.70;;;36.10;98.30;;;;;;6239885;23;20019;-87
2022/06/24 08:31:29;;;;;;;15.10;12.50;;;36.20;98.40;;;;;;6221403;23;20445;-85
2022/06/24 08:33:56;;;;;;;20.50;13.15;;;36.50;98.70;;;;;;6247800;22;20050;-87
2022/06/24 08:36:26;;;;;;;19.23;12.80;;;36.40;99.00;;;;;;6220753;23;20086;-85
2022/06/24 08:38:56;;;;;;;21.88;13.20;;;36.50;98.80;;;;;;6246280;23;20007;-86
2022/06/24 08:41:25;;;;;;;25.13;11.82;;;36.30;99.20;;;;;;6220884;23;20012;-85
2022/06/24 08:43:52;;;;;;;20.42;12.20;;;36.00;99.50;;;;;;6245883;23;20073;-86
2022/06/24 08:46:19;;;;;;;25.50;12.43;;;36.10;99.00;;;;;;6220588;23;20012;-85
2022/06/24 08:48:47;;;;;;;20.15;12.50;;;36.10;98.70;;;;;;6220794;23;20082;-85
2022/06/24 08:51:14;;;;;;;18.83;12.65;;;36.30;99.10;;;;;;6245949;23;20103;-85
2022/06/24 08:53:43;;;;;;;23.40;13.13;;;36.30;98.70;;;;;;6245963;23;20059;-86
2022/06/24 08:56:10;;;;;;;17.10;11.52;;;36.30;98.30;;;;;;6247545;22;20004;-86
2022/06/24 08:58:37;;;;;;;20.45;11.77;;;36.30;98.10;;;;;;6220211;23;20016;-86
2022/06/24 09:01:03;;;;;;;19.02;11.90;;;36.80;97.70;;;;;;6220881;23;20051;-86
2022/06/24 09:03:30;;;;;;;19.67;12.68;;;36.90;97.70;;;;;;6221384;23;20457;-86
2022/06/24 09:05:56;;;;;;;20.45;11.82;;;36.70;97.50;;;;;;6247786;22;20012;-87
2022/06/24 09:08:33;;;;;;;20.90;12.82;;;36.60;97.70;;;;;;6221307;23;20079;-89
2022/06/24 09:11:08;;;;;;;24.33;13.27;;;37.00;98.30;;;;;;6221921;23;20015;-88
2022/06/24 09:13:46;;;;;;;12.98;11.60;;;37.50;97.10;;;;;;6221961;23;20008;-88
2022/06/24 09:16:15;;;;;;;18.30;11.98;;;37.00;97.50;;;;;;6221420;23;20442;-88
2022/06/24 09:18:49;;;;;;;16.77;12.50;;;37.30;97.10;;;;;;6221029;23;20008;-87
2022/06/24 09:21:31;;;;;;;29.35;12.70;;;37.20;97.00;;;;;;6221379;23;20012;-87
2022/06/24 09:24:00;;;;;;;21.08;12.60;;;36.40;97.30;;;;;;6220788;23;20012;-87
2022/06/24 09:26:34;;;;;;;22.05;11.73;;;35.90;97.90;;;;;;6221207;23;20012;-87
2022/06/24 09:29:02;;;;;;;19.25;12.35;;;36.10;97.70;;;;;;6222787;23;20004;-87
2022/06/24 09:31:31;;;;;;;19.05;11.93;;;36.20;97.30;;;;;;6222517;23;20004;-84
2022/06/24 09:34:12;;;;;;;24.33;13.07;;;36.20;97.40;;;;;;6247473;22;20000;-85
2022/06/24 09:36:41;;;;;;;18.38;12.68;;;36.30;97.70;;;;;;6220698;23;20008;-85
2022/06/24 09:39:11;;;;;;;24.70;12.75;;;36.40;97.50;;;;;;6220469;23;20000;-86
2022/06/24 09:41:48;;;;;;;25.25;12.60;;;36.70;97.10;;;;;;6226210;23;20062;-84
2022/06/24 09:44:17;;;;;;;25.50;13.48;;;36.50;97.10;;;;;;6258677;23;20004;-85
2022/06/24 09:46:44;;;;;;;21.95;12.63;;;36.20;97.20;;;;;;6220336;23;20090;-85
2022/06/24 09:49:17;;;;;;;18.42;11.55;;;35.80;97.30;;;;;;6220311;23;20081;-85
2022/06/24 09:51:45;;;;;;;22.30;11.93;;;35.90;97.10;;;;;;6245527;23;20350;-86
2022/06/24 09:54:14;;;;;;;25.13;11.88;;;36.10;97.30;;;;;;6220248;23;20011;-83
2022/06/24 09:56:44;;;;;;;23.27;12.60;;;35.70;97.10;;;;;;6245171;23;20015;-83
2022/06/24 10:02:00;;;;;;;18.00;11.15;;;35.60;97.70;;;;;;6245399;23;20146;-83
2022/06/24 10:04:30;;;;;;;23.33;12.38;;;35.70;97.90;;;;;;6188849;23;20016;-83
2022/06/24 10:06:57;;;;;;;17.58;11.52;;;35.60;97.60;;;;;;6188786;23;20128;-82
2022/06/24 10:09:29;;;;;;;25.20;11.75;;;35.60;97.20;;;;;;6188649;23;20063;-82
2022/06/24 10:11:58;;;;;;;25.27;11.57;;;35.40;97.30;;;;;;6214159;23;20013;-82
2022/06/24 10:14:29;;;;;;;26.67;12.52;;;35.20;97.10;;;;;;6214041;23;20012;-82
2022/06/24 10:16:58;;;;;;;25.23;12.70;;;35.20;97.50;;;;;;6214148;23;20013;-82
2022/06/24 10:19:26;;;;;;;26.52;12.43;;;35.30;97.20;;;;;;6214042;23;20032;-83
2022/06/24 10:21:53;;;;;;;21.73;12.20;;;35.60;97.10;;;;;;6188833;23;20016;-83
2022/06/24 10:24:20;;;;;;;22.30;13.00;;;35.70;97.10;;;;;;6214182;23;20012;-82
2022/06/24 10:26:50;;;;;;;20.58;11.70;;;35.90;97.20;;;;;;6189321;23;20016;-82
2022/06/24 10:29:18;;;;;;;21.02;12.45;;;35.90;96.60;;;;;;6213963;23;20019;-83
2022/06/24 10:31:52;;;;;;;26.63;11.93;;;36.10;96.60;;;;;;6214221;23;20004;-82
2022/06/24 10:34:28;;;;;;;25.27;11.35;;;35.90;96.70;;;;;;6214179;23;20018;-82
2022/06/24 10:37:06;;;;;;;23.27;11.55;;;35.70;96.90;;;;;;6163933;23;20024;-83
2022/06/24 10:39:44;;;;;;;25.38;12.82;;;35.50;97.00;;;;;;6188937;23;20461;-83
2022/06/24 10:42:14;;;;;;;23.98;11.65;;;35.50;97.00;;;;;;6222964;23;20031;-83
2022/06/24 10:45:00;;;;;;;22.70;11.88;;;35.50;97.00;;;;;;6219791;23;20354;-82
2022/06/24 10:47:29;;;;;;;30.08;14.15;;;35.40;97.20;;;;;;6246543;22;20026;-82
2022/06/24 10:50:06;;;;;;;27.10;12.70;;;35.60;96.90;;;;;;6246598;22;20335;-83
2022/06/24 10:52:45;;;;;;;22.13;13.02;;;35.70;96.70;;;;;;6245267;23;20008;-82
2022/06/24 10:55:18;;;;;;;23.15;12.23;;;35.40;97.40;;;;;;6246558;23;20008;-80
2022/06/24 10:58:05;;;;;;;36.25;13.05;;;35.70;97.40;;;;;;6244911;23;20012;-82
2022/06/24 11:00:48;;;;;;;17.30;12.00;;;35.80;97.20;;;;;;6229123;23;20078;-90
2022/06/24 11:03:32;;;;;;;25.85;12.07;;;35.70;96.80;;;;;;6198840;23;20009;-89
2022/06/24 11:06:00;;;;;;;17.13;11.48;;;35.80;97.00;;;;;;6224381;23;20043;-91
2022/06/24 11:08:27;;;;;;;27.50;12.35;;;35.90;97.20;;;;;;6194243;23;20443;-85
2022/06/24 11:10:54;;;;;;;20.58;11.63;;;35.70;96.90;;;;;;6188993;23;20451;-83
2022/06/24 11:13:23;;;;;;;23.42;11.77;;;35.70;97.10;;;;;;6214686;23;20019;-84
2022/06/24 11:15:58;;;;;;;22.08;12.52;;;35.50;96.90;;;;;;6193034;23;20394;-82
2022/06/24 11:18:33;;;;;;;20.27;11.73;;;35.60;97.00;;;;;;6215272;23;20105;-85
2022/06/24 11:21:01;;;;;;;25.48;12.07;;;35.90;97.30;;;;;;6193565;23;20008;-84
2022/06/24 11:23:33;;;;;;;18.02;13.00;;;35.90;97.30;;;;;;6193975;23;20016;-89
2022/06/24 11:26:16;;;;;;;26.55;13.38;;;36.10;97.40;;;;;;6194990;23;20104;-85
2022/06/24 11:28:53;;;;;;;18.52;12.13;;;36.30;96.60;;;;;;6193202;23;20304;-87
2022/06/24 11:31:27;;;;;;;24.25;12.57;;;36.20;96.70;;;;;;6196217;23;20067;-84
2022/06/24 11:34:03;;;;;;;18.75;12.82;;;36.20;96.50;;;;;;6193803;23;20095;-83
2022/06/24 11:36:31;;;;;;;18.98;12.75;;;36.10;97.10;;;;;;6192752;23;20017;-84
2022/06/24 11:39:12;;;;;;;19.45;12.90;;;36.30;97.50;;;;;;6210731;23;19980;-88
2022/06/24 11:41:45;;;;;;;21.55;13.77;;;36.20;96.80;;;;;;6255930;23;20004;-84
2022/06/24 11:44:12;;;;;;;27.75;13.23;;;36.10;97.60;;;;;;6226612;23;20015;-84
2022/06/24 11:46:39;;;;;;;25.33;12.98;;;35.80;97.40;;;;;;6222883;23;20149;-82
2022/06/24 11:49:13;;;;;;;18.10;12.27;;;35.60;97.90;;;;;;6246683;23;20004;-86
2022/06/24 11:52:10;;;;;;;29.40;13.52;;;35.60;97.80;;;;;;6182300;22;20020;-92
2022/06/24 11:54:57;;;;;;;20.27;12.73;;;35.30;97.80;;;;;;6237307;22;20076;-93
2022/06/24 11:57:24;;;;;;;21.10;13.77;;;35.50;98.20;;;;;;6229832;23;20012;-92
2022/06/24 11:59:58;;;;;;;19.60;12.90;;;35.40;98.10;;;;;;6198621;23;20011;-93
2022/06/24 12:02:24;;;;;;;;;;;35.50;98.60;;;;;;6200244;23;20008;-93
2022/06/24 12:04:51;;;;;;;17.75;12.85;;;35.60;99.00;;;;;;6201619;23;20226;-94
2022/06/24 12:07:17;;;;;;;20.10;12.05;;;35.60;98.80;;;;;;6199503;23;20086;-94
2022/06/24 12:09:44;;;;;;;15.85;12.40;;;35.50;98.70;;;;;;6203285;23;20039;-92
2022/06/24 12:12:29;;;;;;;20.67;12.13;;;35.60;98.80;;;;;;6205615;23;20012;-91
2022/06/24 12:14:58;;;;;;;14.68;11.90;;;35.40;98.50;;;;;;6207243;23;20032;-93
2022/06/24 12:17:28;;;;;;;23.77;12.07;;;35.10;98.70;;;;;;6203960;23;20004;-93
2022/06/24 12:20:31;;;;;;;19.85;11.75;;;35.20;98.60;;;;;;6198984;23;20012;-93
2022/06/24 12:23:20;;;;;;;21.83;11.83;;;35.30;99.10;;;;;;6202529;23;20449;-92
2022/06/24 12:25:49;;;;;;;24.73;12.27;;;35.40;98.70;;;;;;6199304;23;20098;-92
2022/06/24 12:28:18;;;;;;;20.02;12.32;;;35.40;98.80;;;;;;6203486;23;20000;-92
2022/06/24 12:30:58;;;;;;;23.73;13.23;;;35.40;98.80;;;;;;6199013;23;20007;-92
2022/06/24 12:33:43;;;;;;;16.92;11.43;;;35.60;98.60;;;;;;6200414;23;20004;-93
2022/06/24 12:36:44;;;;;;;22.73;12.15;;;35.30;99.50;;;;;;6230750;23;20050;-93
2022/06/24 12:39:11;;;;;;;20.52;12.13;;;35.00;99.20;;;;;;6197993;23;20012;-92
2022/06/24 12:41:48;;;;;;;18.10;11.95;;;35.00;99.20;;;;;;6206283;23;20027;-92
2022/06/24 12:44:15;;;;;;;15.23;11.25;;;34.90;99.40;;;;;;6203025;23;20004;-91
2022/06/24 12:52:43;;;;;;;17.83;10.93;;;35.00;99.20;;;;;;6232865;23;20020;-91
2022/06/24 12:55:13;;;;;;;19.92;12.27;;;35.00;99.70;;;;;;6200182;23;20043;-93
2022/06/24 12:57:41;;;;;;;18.75;11.70;;;35.10;99.30;;;;;;6198421;23;20042;-92
2022/06/24 13:00:10;;;;;;;20.63;10.63;;;35.20;99.10;;;;;;6198626;23;20008;-91
2022/06/24 13:02:43;;;;;;;17.55;11.23;;;35.20;99.60;;;;;;6199026;23;20008;-93